Terminal Aerodrome Forecast
Issued by NWS

Home | Current Version | Previous Version | Text Only | Print | Product List | Glossary On
Versions: 1 2 3 4 5 6 7 8 9 10 11 12
000
FTUS44 KEPZ 242300
TAFDMN
TAF
KDMN 242327Z 2500/2524 26022G30KT P6SM BKN070
     FM250300 28008KT P6SM SKC
     FM251600 25010G17KT P6SM FEW150 SCT250=

USA.gov is the U.S. government's official web portal to all federal, state and local government web resources and services.